Time;durP1;ratioP1;P1;durP2;ratioP2;P2;SDS_P1;SDS_P2;PMS_P1;PMS_P2;Temp;Humidity;BMP_temperature;BMP_pressure;BME280_temperature;BME280_humidity;BME280_pressure;Samples;Min_cycle;Max_cycle;Signal;HPM_P1;HPM_P2
2021/03/24 00:01:12;;;;;;;32.88;21.83;;;6.20;91.80;;;;;;2016800;29;20036;-74
2021/03/24 00:02:13;;;;;;;34.28;22.27;;;6.20;91.50;;;;;;2048871;29;20035;-73
2021/03/24 00:03:14;;;;;;;34.85;21.63;;;6.20;91.40;;;;;;2049036;29;20065;-74
2021/03/24 00:04:15;;;;;;;34.83;22.75;;;6.20;91.30;;;;;;2023999;29;20032;-74
2021/03/24 00:05:17;;;;;;;33.60;21.63;;;6.20;91.30;;;;;;2017284;29;20025;-74
2021/03/24 00:06:19;;;;;;;32.35;21.52;;;6.20;91.30;;;;;;2017030;29;20045;-74
2021/03/24 00:07:19;;;;;;;31.92;20.83;;;6.20;91.30;;;;;;2017151;29;20393;-74
2021/03/24 00:08:21;;;;;;;33.03;21.48;;;6.20;91.40;;;;;;2056807;28;20130;-74
2021/03/24 00:09:22;;;;;;;30.83;20.80;;;6.20;91.40;;;;;;2055580;28;20027;-74
2021/03/24 00:10:25;;;;;;;30.25;20.65;;;6.20;91.40;;;;;;2015752;29;20029;-75
2021/03/24 00:11:25;;;;;;;32.35;21.33;;;6.20;91.40;;;;;;2048612;28;20024;-75
2021/03/24 00:12:26;;;;;;;30.70;20.60;;;6.20;91.40;;;;;;2056319;28;20026;-75
2021/03/24 00:13:26;;;;;;;30.38;20.08;;;6.20;91.40;;;;;;2015682;29;20027;-75
2021/03/24 00:14:27;;;;;;;28.83;19.73;;;6.20;91.50;;;;;;2015803;29;20033;-75
2021/03/24 00:15:28;;;;;;;30.60;20.23;;;6.20;91.50;;;;;;2015889;29;20132;-75
2021/03/24 00:16:28;;;;;;;30.02;20.05;;;6.20;91.60;;;;;;2016573;29;20047;-74
2021/03/24 00:17:29;;;;;;;28.38;19.05;;;6.10;91.60;;;;;;2026376;29;20056;-75
2021/03/24 00:18:30;;;;;;;31.13;20.50;;;6.10;91.60;;;;;;2020027;29;20087;-74
2021/03/24 00:19:31;;;;;;;28.33;19.48;;;6.10;91.60;;;;;;2020294;29;20103;-75
2021/03/24 00:20:34;;;;;;;28.23;19.13;;;6.20;91.60;;;;;;2057093;28;20533;-75
2021/03/24 00:21:35;;;;;;;26.13;17.98;;;6.10;91.60;;;;;;2055313;28;20027;-75
2021/03/24 00:22:35;;;;;;;27.85;18.88;;;6.20;91.70;;;;;;2015915;29;20441;-76
2021/03/24 00:23:36;;;;;;;26.92;18.60;;;6.20;91.60;;;;;;2016193;29;20029;-77
2021/03/24 00:24:37;;;;;;;28.73;18.83;;;6.20;91.50;;;;;;2016886;29;20386;-75
2021/03/24 00:25:38;;;;;;;29.23;19.48;;;6.20;91.50;;;;;;2017255;29;20112;-75
2021/03/24 00:26:38;;;;;;;28.02;19.17;;;6.20;91.50;;;;;;2025308;29;20531;-75
2021/03/24 00:27:39;;;;;;;26.98;18.90;;;6.20;91.60;;;;;;2057806;28;20026;-75
2021/03/24 00:28:39;;;;;;;28.75;18.98;;;6.20;91.60;;;;;;2050119;28;20376;-75
2021/03/24 00:29:40;;;;;;;32.08;19.35;;;6.20;91.50;;;;;;2049808;29;20027;-75
2021/03/24 00:30:43;;;;;;;27.38;18.42;;;6.20;91.50;;;;;;2048989;29;20395;-78
2021/03/24 00:31:44;;;;;;;28.85;18.80;;;6.20;91.80;;;;;;2015878;29;20029;-76
2021/03/24 00:32:44;;;;;;;26.92;18.38;;;6.20;91.50;;;;;;2016423;29;20029;-76
2021/03/24 00:33:45;;;;;;;28.92;19.42;;;6.20;91.40;;;;;;2016377;29;20847;-76
2021/03/24 00:34:46;;;;;;;28.55;19.17;;;6.20;91.40;;;;;;2016234;29;20373;-75
2021/03/24 00:35:48;;;;;;;26.45;18.58;;;6.20;91.40;;;;;;2008049;29;20084;-76
2021/03/24 00:36:48;;;;;;;28.83;18.75;;;6.20;91.40;;;;;;2008377;29;20037;-76
2021/03/24 00:37:49;;;;;;;27.67;18.88;;;6.20;91.30;;;;;;2056035;28;20073;-76
2021/03/24 00:38:50;;;;;;;30.88;19.85;;;6.20;91.70;;;;;;2056122;28;20094;-74
2021/03/24 00:39:50;;;;;;;27.92;19.17;;;6.20;91.40;;;;;;2016150;29;20040;-74
2021/03/24 00:40:55;;;;;;;28.38;18.30;;;6.20;91.40;;;;;;2015828;29;20044;-74
2021/03/24 00:41:56;;;;;;;27.98;19.42;;;6.20;91.30;;;;;;2015803;29;20389;-74
2021/03/24 00:42:57;;;;;;;28.08;18.13;;;6.20;91.20;;;;;;2016305;29;20041;-74
2021/03/24 00:43:57;;;;;;;27.52;18.05;;;6.20;91.20;;;;;;2016409;29;20036;-74
2021/03/24 00:44:58;;;;;;;28.23;18.73;;;6.20;91.30;;;;;;2016220;29;20025;-74
2021/03/24 00:45:59;;;;;;;27.48;18.40;;;6.20;91.30;;;;;;2016319;29;20037;-74
2021/03/24 00:47:00;;;;;;;28.42;19.10;;;6.20;91.30;;;;;;2056069;28;20039;-76
2021/03/24 00:48:01;;;;;;;29.27;18.80;;;6.20;91.40;;;;;;2040190;29;20023;-76
2021/03/24 00:49:02;;;;;;;27.45;18.90;;;6.20;91.40;;;;;;2007787;29;20465;-75
2021/03/24 00:50:05;;;;;;;31.10;18.98;;;6.20;91.40;;;;;;2016346;29;20061;-75
2021/03/24 00:51:08;;;;;;;29.55;19.27;;;6.20;91.40;;;;;;2048002;29;20038;-76
2021/03/24 00:52:09;;;;;;;27.27;18.73;;;6.20;91.30;;;;;;2048358;28;20082;-76
2021/03/24 00:53:09;;;;;;;29.55;19.25;;;6.20;91.30;;;;;;2016335;29;20037;-76
2021/03/24 00:54:10;;;;;;;27.95;18.85;;;6.20;91.30;;;;;;2016250;29;20029;-75
2021/03/24 00:55:12;;;;;;;29.83;19.55;;;6.20;91.30;;;;;;2015997;29;20043;-76
2021/03/24 00:56:12;;;;;;;28.75;19.70;;;6.20;91.30;;;;;;2015827;29;20120;-74
2021/03/24 00:57:13;;;;;;;29.42;19.40;;;6.20;91.30;;;;;;2015734;29;20025;-75
2021/03/24 00:58:15;;;;;;;29.02;19.08;;;6.20;91.30;;;;;;2007845;29;20044;-75
2021/03/24 00:59:16;;;;;;;28.40;19.08;;;6.20;91.30;;;;;;2015771;29;20040;-76
2021/03/24 01:00:28;;;;;;;28.25;18.98;;;6.30;91.30;;;;;;2016275;29;20033;-75
2021/03/24 01:01:29;;;;;;;29.38;19.52;;;6.20;91.20;;;;;;2016891;29;20037;-76
2021/03/24 01:02:29;;;;;;;28.65;18.60;;;6.20;91.50;;;;;;2018683;29;20113;-76
2021/03/24 01:03:30;;;;;;;28.75;18.92;;;6.20;91.20;;;;;;2018556;29;20560;-75
2021/03/24 01:04:30;;;;;;;28.35;18.77;;;6.20;91.00;;;;;;2018103;29;20575;-75
2021/03/24 01:05:32;;;;;;;27.33;18.55;;;6.20;91.00;;;;;;2016427;29;20408;-76
2021/03/24 01:06:35;;;;;;;29.25;18.92;;;6.20;91.00;;;;;;2016224;29;20091;-76
2021/03/24 01:07:35;;;;;;;27.55;19.15;;;6.30;91.10;;;;;;2016320;29;20036;-75
2021/03/24 01:08:36;;;;;;;30.92;19.77;;;6.30;91.10;;;;;;2016182;29;20660;-76
2021/03/24 01:09:37;;;;;;;31.10;21.17;;;6.30;91.10;;;;;;2016038;29;20036;-76
2021/03/24 01:10:39;;;;;;;34.35;21.50;;;6.30;91.00;;;;;;2016125;29;20025;-76
2021/03/24 01:11:40;;;;;;;36.42;22.00;;;6.20;90.70;;;;;;2016165;29;20081;-76
2021/03/24 01:12:41;;;;;;;33.13;21.83;;;6.20;90.40;;;;;;2016206;29;20628;-75
2021/03/24 01:13:42;;;;;;;33.83;22.40;;;6.30;90.50;;;;;;2016244;29;20145;-75
2021/03/24 01:14:42;;;;;;;35.70;21.83;;;6.30;90.40;;;;;;2016255;29;20048;-76
2021/03/24 01:15:43;;;;;;;33.30;21.65;;;6.30;90.50;;;;;;2016248;29;20037;-75
2021/03/24 01:16:44;;;;;;;33.50;21.55;;;6.30;90.70;;;;;;2016970;29;20036;-74
2021/03/24 01:17:45;;;;;;;33.30;22.00;;;6.30;90.90;;;;;;2016266;29;20036;-73
2021/03/24 01:18:45;;;;;;;31.98;21.23;;;6.30;91.20;;;;;;2016117;29;20037;-74
2021/03/24 01:19:46;;;;;;;30.58;20.35;;;6.30;91.70;;;;;;2016086;29;20033;-74
2021/03/24 01:20:47;;;;;;;29.02;19.63;;;6.20;91.40;;;;;;2016334;29;20025;-74
2021/03/24 01:21:47;;;;;;;29.60;20.33;;;6.20;91.50;;;;;;2015098;29;20458;-74
2021/03/24 01:22:48;;;;;;;30.92;20.05;;;6.30;91.50;;;;;;2016161;29;20111;-74
2021/03/24 01:23:49;;;;;;;30.38;19.60;;;6.30;91.50;;;;;;2016244;29;20037;-73
2021/03/24 01:24:50;;;;;;;30.85;19.92;;;6.20;91.50;;;;;;2016060;29;20044;-74
2021/03/24 01:25:50;;;;;;;29.85;19.77;;;6.20;91.40;;;;;;2016221;29;20044;-74
2021/03/24 01:26:51;;;;;;;29.58;19.60;;;6.20;91.30;;;;;;2016090;29;20048;-75
2021/03/24 01:27:53;;;;;;;32.03;20.67;;;6.20;91.30;;;;;;2016104;29;20388;-75
2021/03/24 01:29:00;;;;;;;29.45;19.45;;;6.20;91.20;;;;;;2055585;28;20030;-76
2021/03/24 01:30:01;;;;;;;29.17;19.50;;;6.20;91.20;;;;;;2051920;28;20026;-75
2021/03/24 01:31:02;;;;;;;32.08;20.45;;;6.20;91.10;;;;;;2016214;29;20032;-76
2021/03/24 01:32:03;;;;;;;30.95;19.90;;;6.20;91.10;;;;;;2016218;29;20485;-75
2021/03/24 01:33:04;;;;;;;31.42;20.63;;;6.20;91.10;;;;;;2016137;29;20464;-75
2021/03/24 01:34:04;;;;;;;31.70;20.17;;;6.20;91.10;;;;;;2016220;29;20029;-74
2021/03/24 01:35:07;;;;;;;32.17;20.85;;;6.20;91.10;;;;;;2016095;29;20025;-78
2021/03/24 01:36:07;;;;;;;31.00;20.17;;;6.20;91.00;;;;;;2016101;29;20854;-75
2021/03/24 01:37:08;;;;;;;30.95;20.60;;;6.20;90.80;;;;;;2015950;29;20028;-75
2021/03/24 01:38:09;;;;;;;29.55;19.73;;;6.20;90.80;;;;;;2015866;29;20461;-75
2021/03/24 01:39:09;;;;;;;30.52;20.13;;;6.20;90.80;;;;;;2015588;29;20060;-75
2021/03/24 01:40:40;;;;;;;29.23;19.60;;;6.20;90.80;;;;;;2015863;29;20047;-75
2021/03/24 01:41:40;;;;;;;30.75;20.17;;;6.30;90.90;;;;;;2020210;28;20068;-75
2021/03/24 01:42:41;;;;;;;30.20;19.95;;;6.20;90.60;;;;;;2015870;29;20477;-75
2021/03/24 01:43:42;;;;;;;30.83;19.40;;;6.20;90.50;;;;;;2015367;29;20096;-76
2021/03/24 01:45:05;;;;;;;31.58;20.45;;;6.30;90.50;;;;;;2015253;29;20161;-76
2021/03/24 01:46:17;;;;;;;31.55;20.38;;;6.30;90.50;;;;;;2015781;29;20426;-76
2021/03/24 01:47:18;;;;;;;30.95;19.67;;;6.30;90.60;;;;;;2015163;29;20061;-76
2021/03/24 01:48:19;;;;;;;31.10;19.95;;;6.20;90.50;;;;;;2007352;29;20033;-75
2021/03/24 01:49:34;;;;;;;29.35;19.63;;;6.30;90.60;;;;;;2014764;29;20084;-75
2021/03/24 01:50:38;;;;;;;31.17;19.50;;;6.20;90.70;;;;;;2015836;29;20457;-75
2021/03/24 01:51:46;;;;;;;29.10;19.65;;;6.30;90.70;;;;;;2015810;29;20071;-75
2021/03/24 01:52:47;;;;;;;30.27;19.63;;;6.20;90.60;;;;;;2015930;29;20036;-75
2021/03/24 01:53:49;;;;;;;29.27;18.83;;;6.30;90.60;;;;;;2015802;29;20366;-75
2021/03/24 01:54:51;;;;;;;29.40;19.35;;;6.30;90.60;;;;;;2016499;29;20017;-73
2021/03/24 01:55:51;;;;;;;31.08;19.20;;;6.30;90.40;;;;;;2016531;29;20033;-73
2021/03/24 01:57:15;;;;;;;29.08;18.95;;;6.30;90.50;;;;;;2016506;29;20029;-73
2021/03/24 01:58:15;;;;;;;29.45;18.70;;;6.30;90.50;;;;;;2016461;29;20037;-73
2021/03/24 01:59:16;;;;;;;29.45;18.90;;;6.30;90.60;;;;;;2016284;29;20045;-73
2021/03/24 02:00:25;;;;;;;29.40;18.92;;;6.30;90.60;;;;;;2016442;29;20040;-73
2021/03/24 02:01:26;;;;;;;32.28;20.40;;;6.30;90.60;;;;;;2016481;29;20044;-73
2021/03/24 02:02:33;;;;;;;30.52;19.60;;;6.30;90.40;;;;;;2016408;29;20029;-73
2021/03/24 02:03:34;;;;;;;33.92;21.60;;;6.30;90.60;;;;;;2016406;29;20084;-76
2021/03/24 02:04:35;;;;;;;31.30;20.00;;;6.30;90.30;;;;;;2015348;29;20030;-75
2021/03/24 02:05:35;;;;;;;31.00;20.30;;;6.30;90.30;;;;;;2015126;29;20033;-75
2021/03/24 02:07:07;;;;;;;29.63;19.90;;;6.30;90.50;;;;;;2016029;29;20037;-75
2021/03/24 02:08:16;;;;;;;31.92;20.58;;;6.30;90.40;;;;;;2022138;28;20037;-75
2021/03/24 02:09:35;;;;;;;31.48;20.63;;;6.30;90.50;;;;;;2015001;29;20049;-75
2021/03/24 02:10:57;;;;;;;30.48;20.00;;;6.30;90.50;;;;;;2015395;29;20481;-75
2021/03/24 02:12:07;;;;;;;31.33;20.55;;;6.30;90.60;;;;;;2015760;29;20037;-76
2021/03/24 02:13:18;;;;;;;32.25;20.48;;;6.30;90.50;;;;;;2015820;29;20034;-75
2021/03/24 02:14:25;;;;;;;30.10;19.48;;;6.30;90.50;;;;;;2015137;29;20036;-75
2021/03/24 02:15:30;;;;;;;29.50;19.77;;;6.20;90.50;;;;;;2015224;29;20524;-75
2021/03/24 02:16:40;;;;;;;30.08;19.40;;;6.30;90.50;;;;;;2015680;29;20409;-75
2021/03/24 02:17:43;;;;;;;30.15;20.25;;;6.30;90.60;;;;;;2015701;29;20784;-75
2021/03/24 02:18:45;;;;;;;28.75;19.13;;;6.30;90.60;;;;;;2015509;29;20037;-75
2021/03/24 02:20:08;;;;;;;29.58;19.20;;;6.20;90.60;;;;;;2015442;29;20151;-75
2021/03/24 02:21:13;;;;;;;31.17;20.38;;;6.30;90.70;;;;;;2015736;29;20048;-75
2021/03/24 02:22:19;;;;;;;29.48;19.00;;;6.30;90.60;;;;;;2015757;29;20033;-75
2021/03/24 02:23:36;;;;;;;29.92;19.58;;;6.20;90.50;;;;;;2015670;29;20036;-75
2021/03/24 02:24:48;;;;;;;30.77;19.48;;;6.20;90.50;;;;;;2015071;29;20119;-75
2021/03/24 02:26:05;;;;;;;33.58;21.00;;;6.20;90.40;;;;;;2015210;29;20025;-75
2021/03/24 02:27:10;;;;;;;33.70;21.70;;;6.20;90.40;;;;;;2015603;29;20077;-75
2021/03/24 02:28:13;;;;;;;34.45;21.10;;;6.20;90.60;;;;;;2015574;29;20052;-76
2021/03/24 02:29:20;;;;;;;33.30;20.52;;;6.20;90.70;;;;;;2015271;29;20378;-75
2021/03/24 02:30:27;;;;;;;32.83;20.67;;;6.20;90.80;;;;;;2015654;29;20029;-76
2021/03/24 02:31:30;;;;;;;32.55;20.92;;;6.20;90.70;;;;;;2015808;29;20017;-76
2021/03/24 02:32:34;;;;;;;32.70;20.90;;;6.20;90.80;;;;;;2015834;29;20041;-76
2021/03/24 02:33:41;;;;;;;34.75;21.70;;;6.20;90.90;;;;;;2016940;29;20037;-76
2021/03/24 02:34:44;;;;;;;33.25;21.73;;;6.20;90.80;;;;;;2017368;29;20025;-76
2021/03/24 02:35:49;;;;;;;31.15;20.13;;;6.20;90.60;;;;;;2017270;29;20516;-76
2021/03/24 02:36:52;;;;;;;32.70;20.58;;;6.20;90.50;;;;;;2019183;29;20050;-76
2021/03/24 02:37:55;;;;;;;30.90;20.30;;;6.20;90.60;;;;;;2019014;29;20094;-76
2021/03/24 02:38:59;;;;;;;32.50;20.70;;;6.20;90.50;;;;;;2018487;29;20116;-76
2021/03/24 02:40:02;;;;;;;30.52;20.00;;;6.20;90.30;;;;;;2020303;29;20032;-76
2021/03/24 02:41:05;;;;;;;31.70;20.52;;;6.20;90.50;;;;;;2062721;28;20122;-76
2021/03/24 02:42:06;;;;;;;30.85;19.80;;;6.20;90.20;;;;;;2062543;28;20053;-76
2021/03/24 02:43:08;;;;;;;30.95;19.88;;;6.20;90.30;;;;;;2062809;28;20422;-76
2021/03/24 02:44:11;;;;;;;32.75;20.63;;;6.20;90.20;;;;;;2048755;28;20042;-76
2021/03/24 02:45:16;;;;;;;30.27;19.58;;;6.20;90.20;;;;;;2016899;29;20033;-76
2021/03/24 02:46:18;;;;;;;30.42;19.75;;;6.20;90.20;;;;;;2017154;29;20033;-77
2021/03/24 02:47:21;;;;;;;35.40;21.73;;;6.20;90.10;;;;;;2017073;29;20462;-76
2021/03/24 02:48:29;;;;;;;34.67;21.58;;;6.20;90.00;;;;;;2016254;29;20091;-76
2021/03/24 02:49:31;;;;;;;34.72;22.20;;;6.20;90.00;;;;;;2016311;29;20115;-76
2021/03/24 02:50:33;;;;;;;37.22;23.05;;;6.20;90.10;;;;;;2016894;29;20100;-77
2021/03/24 02:51:37;;;;;;;38.03;23.23;;;6.20;90.10;;;;;;2016924;29;20529;-76
2021/03/24 02:52:38;;;;;;;36.28;22.85;;;6.20;90.10;;;;;;2016921;29;20041;-76
2021/03/24 02:53:40;;;;;;;35.35;22.30;;;6.20;90.30;;;;;;2016921;29;20441;-76
2021/03/24 02:54:44;;;;;;;41.42;24.85;;;6.20;90.40;;;;;;2016906;29;20060;-76
2021/03/24 02:55:45;;;;;;;40.20;24.98;;;6.20;89.50;;;;;;2016917;29;20037;-76
2021/03/24 02:56:45;;;;;;;39.35;24.90;;;6.20;88.90;;;;;;2016276;29;20065;-76
2021/03/24 02:57:46;;;;;;;40.58;24.83;;;6.20;88.80;;;;;;2008708;29;20097;-76
2021/03/24 02:58:51;;;;;;;41.72;24.90;;;6.20;88.70;;;;;;2016214;29;20087;-76
2021/03/24 02:59:52;;;;;;;41.40;24.50;;;6.20;88.80;;;;;;2016671;29;20037;-76
2021/03/24 03:00:53;;;;;;;40.08;24.35;;;6.20;88.90;;;;;;2016729;29;20641;-76
2021/03/24 03:02:12;;;;;;;37.15;23.88;;;6.20;89.10;;;;;;2016927;29;20045;-75
2021/03/24 03:03:18;;;;;;;39.22;23.95;;;6.20;89.20;;;;;;2017069;29;20119;-75
2021/03/24 03:04:30;;;;;;;39.05;24.20;;;6.20;89.30;;;;;;2016297;29;20100;-75
2021/03/24 03:05:35;;;;;;;41.15;24.20;;;6.20;88.80;;;;;;2016496;29;20084;-75
2021/03/24 03:06:36;;;;;;;41.08;24.48;;;6.20;88.60;;;;;;2017050;29;20040;-75
2021/03/24 03:07:54;;;;;;;42.10;25.27;;;6.20;88.40;;;;;;2056965;28;20067;-76
2021/03/24 03:09:22;;;;;;;39.55;24.77;;;6.20;88.10;;;;;;2039642;29;20022;-75
2021/03/24 03:10:36;;;;;;;42.42;25.17;;;6.20;88.10;;;;;;2012189;29;20146;-75
2021/03/24 03:12:19;;;;;;;44.05;25.27;;;6.20;88.70;;;;;;2016533;29;20037;-75
2021/03/24 03:13:49;;;;;;;40.97;24.65;;;6.20;88.90;;;;;;2021250;28;20136;-75
2021/03/24 03:15:06;;;;;;;43.90;25.33;;;6.20;89.00;;;;;;2048091;29;20521;-75
2021/03/24 03:16:17;;;;;;;41.75;24.77;;;6.20;89.60;;;;;;2016404;29;20037;-76
2021/03/24 03:17:32;;;;;;;48.83;27.50;;;6.10;89.90;;;;;;2016274;29;20048;-77
2021/03/24 03:18:44;;;;;;;45.67;25.70;;;6.10;89.90;;;;;;2010373;29;20128;-76
2021/03/24 03:19:52;;;;;;;39.45;23.88;;;6.10;90.00;;;;;;2016101;29;20035;-76
2021/03/24 03:21:01;;;;;;;40.20;24.05;;;6.10;90.00;;;;;;2016182;29;20046;-76
2021/03/24 03:22:10;;;;;;;40.40;24.27;;;6.10;89.90;;;;;;2009485;29;20028;-76
2021/03/24 03:23:15;;;;;;;40.63;24.58;;;6.10;90.20;;;;;;2049854;28;20035;-76
2021/03/24 03:24:17;;;;;;;41.10;24.40;;;6.10;90.30;;;;;;2053450;28;20131;-76
2021/03/24 03:25:26;;;;;;;41.65;24.88;;;6.10;90.40;;;;;;2016238;29;20034;-76
2021/03/24 03:26:30;;;;;;;40.95;24.38;;;6.10;90.60;;;;;;2016299;29;20041;-76
2021/03/24 03:27:31;;;;;;;36.90;23.00;;;6.20;90.50;;;;;;2016664;29;20025;-76
2021/03/24 03:28:35;;;;;;;39.00;24.45;;;6.20;90.50;;;;;;2016553;29;20052;-76
2021/03/24 03:29:38;;;;;;;42.22;25.27;;;6.20;90.50;;;;;;2016504;29;20056;-76
2021/03/24 03:30:41;;;;;;;43.75;25.48;;;6.20;90.70;;;;;;2016637;29;20029;-76
2021/03/24 03:31:45;;;;;;;45.05;26.83;;;6.10;91.20;;;;;;2056552;28;20383;-77
2021/03/24 03:32:49;;;;;;;44.45;26.15;;;6.10;91.30;;;;;;2047204;29;20483;-76
2021/03/24 03:33:52;;;;;;;42.75;26.00;;;6.10;91.60;;;;;;2048966;28;20031;-76
2021/03/24 03:34:58;;;;;;;42.25;25.77;;;6.10;91.70;;;;;;2054991;28;20118;-76
2021/03/24 03:35:58;;;;;;;40.63;24.20;;;6.10;91.80;;;;;;2016684;29;20021;-76
2021/03/24 03:37:00;;;;;;;41.53;24.60;;;6.10;91.80;;;;;;2016659;29;20037;-76
2021/03/24 03:38:03;;;;;;;40.42;24.10;;;6.10;91.80;;;;;;2016659;29;20018;-76
2021/03/24 03:39:08;;;;;;;38.67;24.13;;;6.10;91.70;;;;;;2056055;28;20055;-76
2021/03/24 03:40:13;;;;;;;37.13;22.90;;;6.10;91.70;;;;;;2054071;28;20499;-76
2021/03/24 03:41:16;;;;;;;39.20;23.38;;;6.10;91.70;;;;;;2016983;29;20040;-77
2021/03/24 03:42:18;;;;;;;37.45;22.98;;;6.10;91.70;;;;;;2017154;29;20021;-74
2021/03/24 03:43:21;;;;;;;37.70;22.65;;;6.10;91.60;;;;;;2016879;29;20021;-75
2021/03/24 03:44:23;;;;;;;37.28;22.35;;;6.10;91.50;;;;;;2016714;29;20130;-75
2021/03/24 03:45:24;;;;;;;36.15;22.27;;;6.10;91.40;;;;;;2020766;29;20033;-75
2021/03/24 03:46:29;;;;;;;35.65;22.33;;;6.10;91.20;;;;;;2023794;29;20044;-75
2021/03/24 03:47:30;;;;;;;35.22;22.27;;;6.10;91.10;;;;;;2023847;29;20040;-74
2021/03/24 03:48:30;;;;;;;36.38;22.58;;;6.10;91.10;;;;;;2017561;29;20393;-75
2021/03/24 03:49:31;;;;;;;36.15;23.02;;;6.10;91.00;;;;;;2016398;29;20029;-74
2021/03/24 03:50:31;;;;;;;34.70;21.92;;;6.10;91.00;;;;;;2056347;28;20031;-75
2021/03/24 03:51:35;;;;;;;36.05;22.25;;;6.10;91.00;;;;;;2056495;28;20559;-77
2021/03/24 03:52:54;;;;;;;31.70;20.27;;;6.10;91.00;;;;;;2016504;29;20029;-75
2021/03/24 03:54:12;;;;;;;40.70;24.02;;;6.10;91.40;;;;;;2016515;29;20565;-75
2021/03/24 03:55:25;;;;;;;41.63;24.50;;;6.10;91.00;;;;;;2016562;29;20107;-75
2021/03/24 03:56:28;;;;;;;37.05;22.80;;;6.10;91.00;;;;;;2056423;28;20034;-75
2021/03/24 03:57:38;;;;;;;36.22;22.63;;;6.10;91.00;;;;;;2054783;28;20026;-75
2021/03/24 03:58:59;;;;;;;36.83;22.02;;;6.10;91.00;;;;;;2056217;28;20030;-76
2021/03/24 04:00:05;;;;;;;;;;;6.10;90.90;;;;;;2043800;28;20596;-74
2021/03/24 04:01:17;;;;;;;35.60;22.05;;;6.10;90.90;;;;;;2056158;28;19949;-76
2021/03/24 04:02:19;;;;;;;;;;;6.10;91.10;;;;;;2043782;29;20039;-74
2021/03/24 04:03:30;;;;;;;41.47;23.13;;;6.10;91.10;;;;;;2015951;29;19912;-75
2021/03/24 04:04:46;;;;;;;37.47;22.88;;;6.10;91.10;;;;;;2016544;29;20108;-75
2021/03/24 04:05:54;;;;;;;38.22;22.52;;;6.10;91.10;;;;;;2016505;29;20044;-74
2021/03/24 04:07:08;;;;;;;42.00;24.85;;;6.10;91.20;;;;;;2016366;29;20029;-75
2021/03/24 04:08:21;;;;;;;37.60;23.67;;;6.10;91.10;;;;;;2016391;29;20477;-75
2021/03/24 04:09:21;;;;;;;36.83;22.65;;;6.10;91.10;;;;;;2055966;28;20023;-75
2021/03/24 04:10:25;;;;;;;36.55;22.92;;;6.10;91.20;;;;;;2056305;28;20047;-74
2021/03/24 04:11:30;;;;;;;38.40;22.77;;;6.10;91.20;;;;;;2016355;29;20083;-76
2021/03/24 04:12:35;;;;;;;36.83;22.75;;;6.10;91.20;;;;;;2016327;29;20056;-75
2021/03/24 04:13:42;;;;;;;37.28;22.23;;;6.10;91.30;;;;;;2016384;29;20068;-75
2021/03/24 04:14:44;;;;;;;35.35;22.10;;;6.10;91.20;;;;;;2016403;29;20031;-75
2021/03/24 04:15:47;;;;;;;36.67;22.67;;;6.10;91.10;;;;;;2016609;29;20037;-75
2021/03/24 04:16:49;;;;;;;35.70;22.25;;;6.10;90.90;;;;;;2016566;29;20662;-75
2021/03/24 04:17:57;;;;;;;35.83;21.77;;;6.10;90.70;;;;;;2016539;29;20029;-75
2021/03/24 04:19:05;;;;;;;37.13;22.73;;;6.20;90.80;;;;;;2047796;28;20035;-75
2021/03/24 04:20:07;;;;;;;37.70;22.35;;;6.20;90.80;;;;;;2044728;29;20038;-76
2021/03/24 04:21:09;;;;;;;37.45;23.50;;;6.20;90.80;;;;;;2016324;29;20396;-75
2021/03/24 04:22:11;;;;;;;39.00;22.92;;;6.20;90.80;;;;;;2016309;29;20037;-75
2021/03/24 04:23:17;;;;;;;37.15;23.65;;;6.20;90.80;;;;;;2015625;29;20037;-75
2021/03/24 04:24:25;;;;;;;42.67;25.52;;;6.20;90.80;;;;;;2015851;29;20068;-75
2021/03/24 04:25:39;;;;;;;45.35;25.80;;;6.20;90.70;;;;;;2015803;29;20037;-76
2021/03/24 04:26:44;;;;;;;44.75;26.63;;;6.20;90.30;;;;;;2015960;29;20120;-75
2021/03/24 04:27:47;;;;;;;45.53;25.42;;;6.20;89.70;;;;;;2057597;28;20019;-74
2021/03/24 04:28:54;;;;;;;41.53;24.92;;;6.20;89.90;;;;;;2048769;29;20031;-75
2021/03/24 04:30:10;;;;;;;41.22;24.83;;;6.20;89.80;;;;;;2018323;29;20060;-74
2021/03/24 04:31:13;;;;;;;41.92;25.08;;;6.20;89.40;;;;;;2020386;29;20052;-74
2021/03/24 04:32:15;;;;;;;42.90;24.92;;;6.20;89.50;;;;;;2018660;29;20041;-74
2021/03/24 04:33:16;;;;;;;41.58;24.92;;;6.20;89.60;;;;;;2019125;29;20037;-76
2021/03/24 04:34:18;;;;;;;39.83;23.67;;;6.20;89.60;;;;;;2016935;29;20088;-75
2021/03/24 04:35:20;;;;;;;38.63;24.15;;;6.20;89.60;;;;;;2016343;29;20401;-75
2021/03/24 04:36:32;;;;;;;37.50;23.35;;;6.20;89.60;;;;;;2016252;29;20032;-75
2021/03/24 04:37:46;;;;;;;38.40;23.73;;;6.20;89.70;;;;;;2016462;29;20519;-75
2021/03/24 04:38:50;;;;;;;42.42;25.13;;;6.20;89.90;;;;;;2016223;29;20132;-76
2021/03/24 04:39:53;;;;;;;43.00;24.85;;;6.30;90.00;;;;;;2016130;29;20033;-75
2021/03/24 04:41:01;;;;;;;38.75;23.95;;;6.20;89.80;;;;;;2016358;29;20100;-76
2021/03/24 04:42:18;;;;;;;42.33;24.55;;;6.20;89.90;;;;;;2016317;29;20044;-75
2021/03/24 04:43:24;;;;;;;41.65;24.77;;;6.20;90.10;;;;;;2016360;29;20037;-77
2021/03/24 04:44:30;;;;;;;41.15;24.15;;;6.20;90.20;;;;;;2016305;29;20037;-76
2021/03/24 04:45:55;;;;;;;39.75;23.83;;;6.20;90.20;;;;;;2016286;29;20039;-76
2021/03/24 04:47:05;;;;;;;42.03;25.40;;;6.20;90.20;;;;;;2055515;28;20046;-75
2021/03/24 04:48:18;;;;;;;40.80;24.60;;;6.20;90.20;;;;;;2016756;29;20060;-76
2021/03/24 04:49:24;;;;;;;40.10;24.63;;;6.20;90.10;;;;;;2016223;29;20048;-75
2021/03/24 04:50:30;;;;;;;42.38;25.02;;;6.20;90.20;;;;;;2016530;29;20033;-76
2021/03/24 04:51:37;;;;;;;41.08;24.98;;;6.20;90.20;;;;;;2016595;29;20120;-76
2021/03/24 04:52:38;;;;;;;41.28;25.33;;;6.20;90.30;;;;;;2016554;29;20110;-76
2021/03/24 04:53:42;;;;;;;40.88;24.52;;;6.20;90.30;;;;;;2016159;29;20048;-75
2021/03/24 04:54:44;;;;;;;37.55;23.02;;;6.20;90.30;;;;;;2016211;29;20064;-75
2021/03/24 04:55:47;;;;;;;38.72;23.85;;;6.20;90.40;;;;;;2016376;29;20038;-75
2021/03/24 04:57:04;;;;;;;37.15;23.00;;;6.20;90.50;;;;;;2015939;29;20095;-75
2021/03/24 04:58:06;;;;;;;37.28;22.40;;;6.20;90.50;;;;;;2010163;29;20394;-75
2021/03/24 04:59:09;;;;;;;34.78;21.75;;;6.20;90.60;;;;;;2015764;29;20044;-75
2021/03/24 05:00:36;;;;;;;38.38;23.65;;;6.20;90.60;;;;;;2056564;28;20026;-75
2021/03/24 05:01:44;;;;;;;39.42;24.20;;;6.20;90.30;;;;;;2039547;28;20049;-75
2021/03/24 05:02:51;;;;;;;42.80;26.00;;;6.20;90.30;;;;;;2016161;29;20069;-75
2021/03/24 05:04:03;;;;;;;43.88;26.33;;;6.30;90.30;;;;;;2016224;29;20028;-75
2021/03/24 05:05:27;;;;;;;47.80;27.25;;;6.30;90.20;;;;;;2015989;29;20029;-75
2021/03/24 05:06:34;;;;;;;49.35;26.83;;;6.20;90.40;;;;;;2017756;29;20044;-76
2021/03/24 05:07:54;;;;;;;44.97;26.83;;;6.20;90.50;;;;;;2060832;28;20022;-75
2021/03/24 05:08:55;;;;;;;44.22;26.25;;;6.20;90.40;;;;;;2045923;28;20027;-76
2021/03/24 05:09:55;;;;;;;43.55;26.58;;;6.30;90.40;;;;;;2017236;29;20071;-75
2021/03/24 05:11:01;;;;;;;45.05;26.77;;;6.30;90.50;;;;;;2016631;29;20108;-75
2021/03/24 05:12:04;;;;;;;41.30;24.83;;;6.20;90.40;;;;;;2016135;29;20025;-75
2021/03/24 05:13:23;;;;;;;43.78;25.77;;;6.30;90.40;;;;;;2015781;29;20378;-75
2021/03/24 05:14:33;;;;;;;41.50;25.00;;;6.20;90.30;;;;;;2016492;29;20084;-74
2021/03/24 05:15:38;;;;;;;42.05;24.73;;;6.30;90.30;;;;;;2016604;29;20084;-74
2021/03/24 05:16:42;;;;;;;37.45;23.35;;;6.30;90.30;;;;;;2016376;29;20041;-75
2021/03/24 05:17:44;;;;;;;40.55;24.73;;;6.30;90.30;;;;;;2015739;29;20033;-75
2021/03/24 05:18:55;;;;;;;37.78;23.60;;;6.30;90.20;;;;;;2015764;29;20057;-75
2021/03/24 05:20:48;;;;;;;40.05;24.17;;;6.30;90.10;;;;;;2016528;29;20060;-75
2021/03/24 05:22:01;;;;;;;42.58;25.05;;;6.30;90.00;;;;;;2039260;29;20158;-75
2021/03/24 05:23:09;;;;;;;47.38;26.70;;;6.30;90.00;;;;;;2017202;29;20049;-75
2021/03/24 05:24:15;;;;;;;44.85;26.25;;;6.30;89.70;;;;;;2022298;29;20040;-75
2021/03/24 05:25:32;;;;;;;45.65;26.70;;;6.30;89.70;;;;;;2016072;29;20033;-76
2021/03/24 05:26:36;;;;;;;45.40;27.42;;;6.30;89.70;;;;;;2015501;29;20141;-75
2021/03/24 05:27:49;;;;;;;45.65;27.30;;;6.30;89.80;;;;;;2015544;29;20477;-76
2021/03/24 05:28:53;;;;;;;46.92;28.00;;;6.30;89.80;;;;;;2016295;29;20037;-76
2021/03/24 05:29:59;;;;;;;51.03;29.13;;;6.30;89.70;;;;;;2016221;29;20021;-76
2021/03/24 05:31:04;;;;;;;49.40;29.08;;;6.30;90.10;;;;;;2016605;29;20032;-76
2021/03/24 05:32:08;;;;;;;44.05;27.30;;;6.30;89.60;;;;;;2016501;29;20036;-76
2021/03/24 05:33:11;;;;;;;51.42;29.48;;;6.30;89.80;;;;;;2016139;29;20029;-76
2021/03/24 05:34:22;;;;;;;46.97;28.75;;;6.30;89.60;;;;;;2016108;29;20469;-76
2021/03/24 05:35:23;;;;;;;;;;;6.30;89.80;;;;;;2015924;29;20037;-76
2021/03/24 05:36:47;;;;;;;47.38;27.30;;;6.30;90.00;;;;;;2015501;29;19959;-76
2021/03/24 05:37:48;;;;;;;45.50;26.65;;;6.30;90.40;;;;;;2020861;28;20083;-76